sensor_id;sensor_type;location;lat;lon;timestamp;P1;durP1;ratioP1;P2;durP2;ratioP2
63782;SDS011;49925;52.522;5.732;2022-07-09T00:02:13;12.48;;;4.88;;
63782;SDS011;49925;52.522;5.732;2022-07-09T00:04:40;13.60;;;4.78;;
63782;SDS011;49925;52.522;5.732;2022-07-09T00:07:07;11.45;;;5.32;;
63782;SDS011;49925;52.522;5.732;2022-07-09T00:09:35;14.50;;;5.03;;
63782;SDS011;49925;52.522;5.732;2022-07-09T00:12:02;12.25;;;4.47;;
63782;SDS011;49925;52.522;5.732;2022-07-09T00:14:30;12.95;;;5.20;;
63782;SDS011;49925;52.522;5.732;2022-07-09T00:16:57;12.15;;;4.82;;
63782;SDS011;49925;52.522;5.732;2022-07-09T00:19:24;10.80;;;5.35;;
63782;SDS011;49925;52.522;5.732;2022-07-09T00:21:51;12.70;;;5.50;;
63782;SDS011;49925;52.522;5.732;2022-07-09T00:24:18;15.20;;;5.20;;
63782;SDS011;49925;52.522;5.732;2022-07-09T00:26:45;11.57;;;5.32;;
63782;SDS011;49925;52.522;5.732;2022-07-09T00:29:13;19.88;;;7.45;;
63782;SDS011;49925;52.522;5.732;2022-07-09T00:31:40;16.27;;;5.55;;
63782;SDS011;49925;52.522;5.732;2022-07-09T00:34:07;14.02;;;5.40;;
63782;SDS011;49925;52.522;5.732;2022-07-09T00:36:34;13.27;;;5.28;;
63782;SDS011;49925;52.522;5.732;2022-07-09T00:39:04;12.40;;;4.78;;
63782;SDS011;49925;52.522;5.732;2022-07-09T00:41:31;11.20;;;4.80;;
63782;SDS011;49925;52.522;5.732;2022-07-09T00:44:00;10.00;;;4.72;;
63782;SDS011;49925;52.522;5.732;2022-07-09T00:46:27;14.32;;;5.18;;
63782;SDS011;49925;52.522;5.732;2022-07-09T00:48:54;15.65;;;5.53;;
63782;SDS011;49925;52.522;5.732;2022-07-09T00:51:21;14.00;;;4.65;;
63782;SDS011;49925;52.522;5.732;2022-07-09T00:53:48;15.88;;;5.65;;
63782;SDS011;49925;52.522;5.732;2022-07-09T00:56:16;14.85;;;6.05;;
63782;SDS011;49925;52.522;5.732;2022-07-09T00:58:43;14.25;;;4.88;;
63782;SDS011;49925;52.522;5.732;2022-07-09T01:01:11;15.15;;;5.50;;
63782;SDS011;49925;52.522;5.732;2022-07-09T01:03:41;13.07;;;5.22;;
63782;SDS011;49925;52.522;5.732;2022-07-09T01:06:11;12.75;;;4.85;;
63782;SDS011;49925;52.522;5.732;2022-07-09T01:11:06;9.95;;;4.40;;
63782;SDS011;49925;52.522;5.732;2022-07-09T01:13:33;14.23;;;5.15;;
63782;SDS011;49925;52.522;5.732;2022-07-09T01:16:01;13.63;;;4.72;;
63782;SDS011;49925;52.522;5.732;2022-07-09T01:18:30;11.23;;;4.80;;
63782;SDS011;49925;52.522;5.732;2022-07-09T01:20:57;9.60;;;4.75;;
63782;SDS011;49925;52.522;5.732;2022-07-09T01:23:25;9.18;;;4.72;;
63782;SDS011;49925;52.522;5.732;2022-07-09T01:25:52;12.85;;;5.80;;
63782;SDS011;49925;52.522;5.732;2022-07-09T01:28:21;13.73;;;5.85;;
63782;SDS011;49925;52.522;5.732;2022-07-09T01:30:48;13.57;;;5.30;;
63782;SDS011;49925;52.522;5.732;2022-07-09T01:33:15;20.48;;;6.25;;
63782;SDS011;49925;52.522;5.732;2022-07-09T01:35:42;15.45;;;5.60;;
63782;SDS011;49925;52.522;5.732;2022-07-09T01:38:09;18.67;;;5.63;;
63782;SDS011;49925;52.522;5.732;2022-07-09T01:40:36;13.02;;;5.57;;
63782;SDS011;49925;52.522;5.732;2022-07-09T01:43:03;17.90;;;6.13;;
63782;SDS011;49925;52.522;5.732;2022-07-09T01:45:31;22.08;;;8.07;;
63782;SDS011;49925;52.522;5.732;2022-07-09T01:48:00;19.83;;;8.43;;
63782;SDS011;49925;52.522;5.732;2022-07-09T01:50:27;18.08;;;8.40;;
63782;SDS011;49925;52.522;5.732;2022-07-09T01:52:54;18.77;;;8.02;;
63782;SDS011;49925;52.522;5.732;2022-07-09T01:55:22;24.45;;;8.00;;
63782;SDS011;49925;52.522;5.732;2022-07-09T01:57:49;14.70;;;7.95;;
63782;SDS011;49925;52.522;5.732;2022-07-09T02:00:19;22.48;;;8.95;;
63782;SDS011;49925;52.522;5.732;2022-07-09T02:02:46;18.33;;;8.40;;
63782;SDS011;49925;52.522;5.732;2022-07-09T02:05:13;22.45;;;8.13;;
63782;SDS011;49925;52.522;5.732;2022-07-09T02:07:40;19.48;;;8.38;;
63782;SDS011;49925;52.522;5.732;2022-07-09T02:10:07;30.85;;;7.97;;
63782;SDS011;49925;52.522;5.732;2022-07-09T02:12:35;21.08;;;8.25;;
63782;SDS011;49925;52.522;5.732;2022-07-09T02:15:02;18.75;;;7.53;;
63782;SDS011;49925;52.522;5.732;2022-07-09T02:17:31;19.95;;;7.18;;
63782;SDS011;49925;52.522;5.732;2022-07-09T02:19:58;17.30;;;7.18;;
63782;SDS011;49925;52.522;5.732;2022-07-09T02:22:25;16.13;;;6.50;;
63782;SDS011;49925;52.522;5.732;2022-07-09T02:24:53;18.80;;;7.18;;
63782;SDS011;49925;52.522;5.732;2022-07-09T02:27:20;19.73;;;7.00;;
63782;SDS011;49925;52.522;5.732;2022-07-09T02:29:47;20.63;;;7.75;;
63782;SDS011;49925;52.522;5.732;2022-07-09T02:32:14;15.23;;;7.03;;
63782;SDS011;49925;52.522;5.732;2022-07-09T02:34:41;23.83;;;7.13;;
63782;SDS011;49925;52.522;5.732;2022-07-09T02:37:09;19.05;;;7.00;;
63782;SDS011;49925;52.522;5.732;2022-07-09T02:39:36;14.05;;;6.78;;
63782;SDS011;49925;52.522;5.732;2022-07-09T02:42:11;21.63;;;6.80;;
63782;SDS011;49925;52.522;5.732;2022-07-09T02:44:41;19.70;;;6.78;;
63782;SDS011;49925;52.522;5.732;2022-07-09T02:49:36;16.10;;;7.20;;
63782;SDS011;49925;52.522;5.732;2022-07-09T02:52:04;14.02;;;6.57;;
63782;SDS011;49925;52.522;5.732;2022-07-09T02:54:32;24.40;;;7.63;;
63782;SDS011;49925;52.522;5.732;2022-07-09T02:57:00;14.77;;;6.68;;
63782;SDS011;49925;52.522;5.732;2022-07-09T02:59:27;21.20;;;6.53;;
63782;SDS011;49925;52.522;5.732;2022-07-09T03:01:55;17.85;;;6.60;;
63782;SDS011;49925;52.522;5.732;2022-07-09T03:04:22;14.25;;;6.22;;
63782;SDS011;49925;52.522;5.732;2022-07-09T03:06:49;16.42;;;6.03;;
63782;SDS011;49925;52.522;5.732;2022-07-09T03:09:16;21.88;;;6.00;;
63782;SDS011;49925;52.522;5.732;2022-07-09T03:11:43;13.80;;;5.60;;
63782;SDS011;49925;52.522;5.732;2022-07-09T03:14:10;16.25;;;4.97;;
63782;SDS011;49925;52.522;5.732;2022-07-09T03:16:37;12.07;;;5.50;;
63782;SDS011;49925;52.522;5.732;2022-07-09T03:19:07;13.77;;;6.10;;
63782;SDS011;49925;52.522;5.732;2022-07-09T03:21:34;16.38;;;6.13;;
63782;SDS011;49925;52.522;5.732;2022-07-09T03:24:02;16.05;;;5.85;;
63782;SDS011;49925;52.522;5.732;2022-07-09T03:26:29;17.05;;;6.38;;
63782;SDS011;49925;52.522;5.732;2022-07-09T03:28:56;23.58;;;6.85;;
63782;SDS011;49925;52.522;5.732;2022-07-09T03:31:24;21.15;;;6.10;;
63782;SDS011;49925;52.522;5.732;2022-07-09T03:33:52;15.65;;;6.28;;
63782;SDS011;49925;52.522;5.732;2022-07-09T03:36:21;12.60;;;5.43;;
63782;SDS011;49925;52.522;5.732;2022-07-09T03:38:48;17.02;;;5.80;;
63782;SDS011;49925;52.522;5.732;2022-07-09T03:41:15;15.82;;;5.15;;
63782;SDS011;49925;52.522;5.732;2022-07-09T03:43:42;14.50;;;5.40;;
63782;SDS011;49925;52.522;5.732;2022-07-09T03:46:10;15.48;;;5.30;;
63782;SDS011;49925;52.522;5.732;2022-07-09T03:48:37;9.88;;;5.28;;
63782;SDS011;49925;52.522;5.732;2022-07-09T03:51:04;16.20;;;5.38;;
63782;SDS011;49925;52.522;5.732;2022-07-09T03:53:31;21.38;;;6.18;;
63782;SDS011;49925;52.522;5.732;2022-07-09T03:55:59;12.00;;;5.65;;
63782;SDS011;49925;52.522;5.732;2022-07-09T03:58:26;14.60;;;5.85;;
63782;SDS011;49925;52.522;5.732;2022-07-09T04:00:53;17.58;;;6.30;;
63782;SDS011;49925;52.522;5.732;2022-07-09T04:03:21;21.80;;;5.38;;
63782;SDS011;49925;52.522;5.732;2022-07-09T04:05:48;15.68;;;5.20;;
63782;SDS011;49925;52.522;5.732;2022-07-09T04:08:15;16.13;;;5.90;;
63782;SDS011;49925;52.522;5.732;2022-07-09T04:10:43;15.32;;;5.70;;
63782;SDS011;49925;52.522;5.732;2022-07-09T04:13:10;19.65;;;6.03;;
63782;SDS011;49925;52.522;5.732;2022-07-09T04:15:40;18.23;;;6.20;;
63782;SDS011;49925;52.522;5.732;2022-07-09T04:18:07;25.50;;;8.30;;
63782;SDS011;49925;52.522;5.732;2022-07-09T04:20:35;20.15;;;7.00;;
63782;SDS011;49925;52.522;5.732;2022-07-09T04:23:02;13.35;;;6.72;;
63782;SDS011;49925;52.522;5.732;2022-07-09T04:25:32;23.13;;;7.80;;
63782;SDS011;49925;52.522;5.732;2022-07-09T04:28:02;16.23;;;6.47;;
63782;SDS011;49925;52.522;5.732;2022-07-09T04:30:31;15.52;;;6.97;;
63782;SDS011;49925;52.522;5.732;2022-07-09T04:32:59;19.48;;;6.95;;
63782;SDS011;49925;52.522;5.732;2022-07-09T04:35:27;19.25;;;6.70;;
63782;SDS011;49925;52.522;5.732;2022-07-09T04:37:54;19.75;;;6.43;;
63782;SDS011;49925;52.522;5.732;2022-07-09T04:40:22;17.30;;;6.40;;
63782;SDS011;49925;52.522;5.732;2022-07-09T04:42:49;13.30;;;5.88;;
63782;SDS011;49925;52.522;5.732;2022-07-09T04:45:16;14.48;;;5.32;;
63782;SDS011;49925;52.522;5.732;2022-07-09T04:47:44;14.02;;;5.53;;
63782;SDS011;49925;52.522;5.732;2022-07-09T04:50:11;14.60;;;5.38;;
63782;SDS011;49925;52.522;5.732;2022-07-09T04:52:41;17.73;;;5.80;;
63782;SDS011;49925;52.522;5.732;2022-07-09T04:55:08;12.82;;;5.97;;
63782;SDS011;49925;52.522;5.732;2022-07-09T04:57:37;18.35;;;6.40;;
63782;SDS011;49925;52.522;5.732;2022-07-09T05:00:04;15.23;;;5.65;;
63782;SDS011;49925;52.522;5.732;2022-07-09T05:02:32;18.33;;;6.10;;
63782;SDS011;49925;52.522;5.732;2022-07-09T05:05:01;18.95;;;6.30;;
63782;SDS011;49925;52.522;5.732;2022-07-09T05:07:30;14.90;;;6.38;;
63782;SDS011;49925;52.522;5.732;2022-07-09T05:09:57;16.45;;;6.40;;
63782;SDS011;49925;52.522;5.732;2022-07-09T05:12:24;15.45;;;6.30;;
63782;SDS011;49925;52.522;5.732;2022-07-09T05:14:52;14.75;;;6.30;;
63782;SDS011;49925;52.522;5.732;2022-07-09T05:17:19;19.30;;;7.05;;
63782;SDS011;49925;52.522;5.732;2022-07-09T05:19:46;16.30;;;6.22;;
63782;SDS011;49925;52.522;5.732;2022-07-09T05:22:13;16.60;;;6.47;;
63782;SDS011;49925;52.522;5.732;2022-07-09T05:24:40;12.55;;;6.10;;
63782;SDS011;49925;52.522;5.732;2022-07-09T05:27:11;16.75;;;6.72;;
63782;SDS011;49925;52.522;5.732;2022-07-09T05:29:41;16.35;;;6.82;;
63782;SDS011;49925;52.522;5.732;2022-07-09T05:32:08;14.18;;;6.63;;
63782;SDS011;49925;52.522;5.732;2022-07-09T05:34:35;13.77;;;6.10;;
63782;SDS011;49925;52.522;5.732;2022-07-09T05:37:02;12.88;;;6.10;;
63782;SDS011;49925;52.522;5.732;2022-07-09T05:39:41;18.25;;;6.65;;
63782;SDS011;49925;52.522;5.732;2022-07-09T05:42:11;13.93;;;6.28;;
63782;SDS011;49925;52.522;5.732;2022-07-09T05:44:38;19.73;;;6.60;;
63782;SDS011;49925;52.522;5.732;2022-07-09T05:47:05;14.70;;;6.15;;
63782;SDS011;49925;52.522;5.732;2022-07-09T05:49:32;14.07;;;5.75;;
63782;SDS011;49925;52.522;5.732;2022-07-09T05:51:59;12.65;;;6.15;;
63782;SDS011;49925;52.522;5.732;2022-07-09T05:54:27;13.73;;;5.70;;
63782;SDS011;49925;52.522;5.732;2022-07-09T05:56:54;22.17;;;6.93;;
63782;SDS011;49925;52.522;5.732;2022-07-09T05:59:22;14.13;;;5.65;;
63782;SDS011;49925;52.522;5.732;2022-07-09T06:01:49;11.70;;;6.03;;
63782;SDS011;49925;52.522;5.732;2022-07-09T06:04:16;12.23;;;6.13;;
63782;SDS011;49925;52.522;5.732;2022-07-09T06:06:44;16.08;;;6.07;;
63782;SDS011;49925;52.522;5.732;2022-07-09T06:09:11;17.33;;;5.90;;
63782;SDS011;49925;52.522;5.732;2022-07-09T06:11:40;13.27;;;5.63;;
63782;SDS011;49925;52.522;5.732;2022-07-09T06:14:08;19.02;;;6.03;;
63782;SDS011;49925;52.522;5.732;2022-07-09T06:19:08;15.70;;;5.00;;
63782;SDS011;49925;52.522;5.732;2022-07-09T06:21:35;15.65;;;5.03;;
63782;SDS011;49925;52.522;5.732;2022-07-09T06:24:02;13.40;;;4.38;;
63782;SDS011;49925;52.522;5.732;2022-07-09T06:26:30;6.22;;;3.80;;
63782;SDS011;49925;52.522;5.732;2022-07-09T06:28:57;8.32;;;3.95;;
63782;SDS011;49925;52.522;5.732;2022-07-09T06:31:24;9.07;;;4.03;;
63782;SDS011;49925;52.522;5.732;2022-07-09T06:33:52;10.80;;;4.03;;
63782;SDS011;49925;52.522;5.732;2022-07-09T06:36:25;9.65;;;3.42;;
63782;SDS011;49925;52.522;5.732;2022-07-09T06:38:53;6.22;;;3.22;;
63782;SDS011;49925;52.522;5.732;2022-07-09T06:41:39;8.80;;;3.78;;
63782;SDS011;49925;52.522;5.732;2022-07-09T06:44:06;10.55;;;3.80;;
63782;SDS011;49925;52.522;5.732;2022-07-09T06:46:33;8.52;;;3.97;;
63782;SDS011;49925;52.522;5.732;2022-07-09T06:49:02;8.68;;;4.90;;
63782;SDS011;49925;52.522;5.732;2022-07-09T06:51:30;11.73;;;4.63;;
63782;SDS011;49925;52.522;5.732;2022-07-09T06:53:57;10.25;;;4.10;;
63782;SDS011;49925;52.522;5.732;2022-07-09T10:16:54;18.00;;;3.20;;
63782;SDS011;49925;52.522;5.732;2022-07-09T10:19:28;16.67;;;3.30;;
63782;SDS011;49925;52.522;5.732;2022-07-09T10:22:00;15.48;;;3.20;;
63782;SDS011;49925;52.522;5.732;2022-07-09T10:24:28;13.32;;;3.05;;
63782;SDS011;49925;52.522;5.732;2022-07-09T10:27:06;11.60;;;2.80;;
63782;SDS011;49925;52.522;5.732;2022-07-09T10:29:55;19.67;;;3.33;;
63782;SDS011;49925;52.522;5.732;2022-07-09T10:50:42;9.20;;;2.78;;
63782;SDS011;49925;52.522;5.732;2022-07-09T10:53:12;11.98;;;3.00;;
63782;SDS011;49925;52.522;5.732;2022-07-09T10:55:42;8.38;;;3.00;;
63782;SDS011;49925;52.522;5.732;2022-07-09T10:58:21;12.38;;;2.70;;
63782;SDS011;49925;52.522;5.732;2022-07-09T11:00:59;13.15;;;2.75;;
63782;SDS011;49925;52.522;5.732;2022-07-09T11:03:30;10.27;;;2.45;;
63782;SDS011;49925;52.522;5.732;2022-07-09T11:06:01;8.55;;;2.67;;
63782;SDS011;49925;52.522;5.732;2022-07-09T11:08:30;14.65;;;2.63;;
63782;SDS011;49925;52.522;5.732;2022-07-09T11:10:59;7.15;;;2.58;;
63782;SDS011;49925;52.522;5.732;2022-07-09T11:13:26;13.57;;;2.35;;
63782;SDS011;49925;52.522;5.732;2022-07-09T11:15:58;17.38;;;3.38;;
63782;SDS011;49925;52.522;5.732;2022-07-09T11:18:27;10.90;;;2.63;;
63782;SDS011;49925;52.522;5.732;2022-07-09T11:20:55;7.15;;;2.22;;
63782;SDS011;49925;52.522;5.732;2022-07-09T11:23:23;11.98;;;2.40;;
63782;SDS011;49925;52.522;5.732;2022-07-09T11:25:50;7.35;;;2.45;;
63782;SDS011;49925;52.522;5.732;2022-07-09T11:28:21;6.88;;;2.33;;
63782;SDS011;49925;52.522;5.732;2022-07-09T11:31:00;14.05;;;2.90;;
63782;SDS011;49925;52.522;5.732;2022-07-09T11:33:30;8.90;;;2.67;;
63782;SDS011;49925;52.522;5.732;2022-07-09T11:36:17;12.98;;;3.15;;
63782;SDS011;49925;52.522;5.732;2022-07-09T11:38:48;9.30;;;2.67;;
63782;SDS011;49925;52.522;5.732;2022-07-09T11:41:16;9.40;;;2.50;;
63782;SDS011;49925;52.522;5.732;2022-07-09T11:43:52;7.68;;;2.45;;
63782;SDS011;49925;52.522;5.732;2022-07-09T11:46:20;8.13;;;2.30;;
63782;SDS011;49925;52.522;5.732;2022-07-09T11:48:48;9.20;;;2.67;;
63782;SDS011;49925;52.522;5.732;2022-07-09T11:51:26;9.13;;;2.50;;
63782;SDS011;49925;52.522;5.732;2022-07-09T11:53:59;12.77;;;2.92;;
63782;SDS011;49925;52.522;5.732;2022-07-09T11:56:27;20.35;;;2.85;;
63782;SDS011;49925;52.522;5.732;2022-07-09T11:59:06;12.48;;;2.80;;
63782;SDS011;49925;52.522;5.732;2022-07-09T12:01:35;15.57;;;2.80;;
63782;SDS011;49925;52.522;5.732;2022-07-09T12:04:02;15.07;;;2.88;;
63782;SDS011;49925;52.522;5.732;2022-07-09T12:06:30;11.65;;;2.78;;
63782;SDS011;49925;52.522;5.732;2022-07-09T12:08:58;14.07;;;3.08;;
63782;SDS011;49925;52.522;5.732;2022-07-09T12:11:31;19.75;;;3.55;;
63782;SDS011;49925;52.522;5.732;2022-07-09T12:13:58;17.17;;;4.20;;
63782;SDS011;49925;52.522;5.732;2022-07-09T12:16:25;19.60;;;3.72;;
63782;SDS011;49925;52.522;5.732;2022-07-09T12:18:53;16.27;;;3.50;;
63782;SDS011;49925;52.522;5.732;2022-07-09T12:21:23;21.15;;;3.85;;
63782;SDS011;49925;52.522;5.732;2022-07-09T12:23:50;18.98;;;4.03;;
63782;SDS011;49925;52.522;5.732;2022-07-09T12:26:17;12.32;;;3.45;;
63782;SDS011;49925;52.522;5.732;2022-07-09T12:28:44;20.38;;;3.67;;
63782;SDS011;49925;52.522;5.732;2022-07-09T12:31:12;16.25;;;3.40;;
63782;SDS011;49925;52.522;5.732;2022-07-09T12:33:39;15.27;;;3.65;;
63782;SDS011;49925;52.522;5.732;2022-07-09T12:36:06;20.40;;;3.80;;
63782;SDS011;49925;52.522;5.732;2022-07-09T12:38:33;23.48;;;4.03;;
63782;SDS011;49925;52.522;5.732;2022-07-09T12:41:01;22.42;;;4.22;;
63782;SDS011;49925;52.522;5.732;2022-07-09T12:43:29;20.50;;;4.72;;
63782;SDS011;49925;52.522;5.732;2022-07-09T12:45:56;21.95;;;3.58;;
63782;SDS011;49925;52.522;5.732;2022-07-09T12:48:24;15.45;;;3.45;;
63782;SDS011;49925;52.522;5.732;2022-07-09T12:50:52;15.70;;;3.17;;
63782;SDS011;49925;52.522;5.732;2022-07-09T12:53:25;21.20;;;3.25;;
63782;SDS011;49925;52.522;5.732;2022-07-09T12:55:53;20.75;;;3.25;;
63782;SDS011;49925;52.522;5.732;2022-07-09T12:58:28;13.82;;;3.05;;
63782;SDS011;49925;52.522;5.732;2022-07-09T13:00:55;10.68;;;2.80;;
63782;SDS011;49925;52.522;5.732;2022-07-09T13:03:23;12.00;;;3.08;;
63782;SDS011;49925;52.522;5.732;2022-07-09T13:05:50;14.73;;;3.30;;
63782;SDS011;49925;52.522;5.732;2022-07-09T13:08:19;10.63;;;2.85;;
63782;SDS011;49925;52.522;5.732;2022-07-09T13:10:50;14.52;;;3.28;;
63782;SDS011;49925;52.522;5.732;2022-07-09T13:13:17;12.73;;;2.88;;
63782;SDS011;49925;52.522;5.732;2022-07-09T13:15:44;21.88;;;3.42;;
63782;SDS011;49925;52.522;5.732;2022-07-09T13:18:11;14.88;;;3.03;;
63782;SDS011;49925;52.522;5.732;2022-07-09T13:20:39;15.00;;;2.97;;
63782;SDS011;49925;52.522;5.732;2022-07-09T13:23:11;10.10;;;2.90;;
63782;SDS011;49925;52.522;5.732;2022-07-09T13:25:39;13.48;;;2.67;;
63782;SDS011;49925;52.522;5.732;2022-07-09T13:28:06;15.73;;;2.53;;
63782;SDS011;49925;52.522;5.732;2022-07-09T13:30:35;14.38;;;3.20;;
63782;SDS011;49925;52.522;5.732;2022-07-09T13:33:03;21.13;;;2.85;;
63782;SDS011;49925;52.522;5.732;2022-07-09T13:35:30;8.07;;;2.55;;
63782;SDS011;49925;52.522;5.732;2022-07-09T13:37:57;13.18;;;2.72;;
63782;SDS011;49925;52.522;5.732;2022-07-09T13:40:24;15.02;;;2.65;;
63782;SDS011;49925;52.522;5.732;2022-07-09T13:42:54;8.80;;;2.50;;
63782;SDS011;49925;52.522;5.732;2022-07-09T13:45:21;10.20;;;2.60;;
63782;SDS011;49925;52.522;5.732;2022-07-09T13:47:48;12.20;;;2.80;;
63782;SDS011;49925;52.522;5.732;2022-07-09T13:50:15;18.20;;;2.63;;
63782;SDS011;49925;52.522;5.732;2022-07-09T13:52:45;7.97;;;2.60;;
63782;SDS011;49925;52.522;5.732;2022-07-09T13:55:12;8.90;;;2.83;;
63782;SDS011;49925;52.522;5.732;2022-07-09T13:57:39;12.57;;;2.40;;
63782;SDS011;49925;52.522;5.732;2022-07-09T14:00:07;13.23;;;3.13;;
63782;SDS011;49925;52.522;5.732;2022-07-09T14:02:36;10.85;;;2.70;;
63782;SDS011;49925;52.522;5.732;2022-07-09T14:05:04;11.32;;;2.92;;
63782;SDS011;49925;52.522;5.732;2022-07-09T14:07:31;10.75;;;2.35;;
63782;SDS011;49925;52.522;5.732;2022-07-09T14:09:59;9.57;;;2.58;;
63782;SDS011;49925;52.522;5.732;2022-07-09T14:12:29;10.05;;;2.45;;
63782;SDS011;49925;52.522;5.732;2022-07-09T14:14:59;9.75;;;2.50;;
63782;SDS011;49925;52.522;5.732;2022-07-09T14:17:26;11.48;;;2.53;;
63782;SDS011;49925;52.522;5.732;2022-07-09T14:19:53;20.63;;;2.80;;
63782;SDS011;49925;52.522;5.732;2022-07-09T14:22:21;7.90;;;2.80;;
63782;SDS011;49925;52.522;5.732;2022-07-09T14:24:48;12.10;;;2.50;;
63782;SDS011;49925;52.522;5.732;2022-07-09T14:27:15;13.35;;;2.70;;
63782;SDS011;49925;52.522;5.732;2022-07-09T14:29:43;9.70;;;2.58;;
63782;SDS011;49925;52.522;5.732;2022-07-09T14:32:11;10.48;;;2.72;;
63782;SDS011;49925;52.522;5.732;2022-07-09T14:34:39;11.27;;;2.63;;
63782;SDS011;49925;52.522;5.732;2022-07-09T14:37:06;18.42;;;5.82;;
63782;SDS011;49925;52.522;5.732;2022-07-09T14:39:33;27.15;;;7.03;;
63782;SDS011;49925;52.522;5.732;2022-07-09T14:42:00;18.50;;;5.50;;
63782;SDS011;49925;52.522;5.732;2022-07-09T14:44:30;26.20;;;7.28;;
63782;SDS011;49925;52.522;5.732;2022-07-09T14:46:58;34.63;;;12.32;;
63782;SDS011;49925;52.522;5.732;2022-07-09T14:49:27;19.20;;;4.75;;
63782;SDS011;49925;52.522;5.732;2022-07-09T14:51:55;18.88;;;5.35;;
63782;SDS011;49925;52.522;5.732;2022-07-09T14:54:22;18.30;;;5.28;;
63782;SDS011;49925;52.522;5.732;2022-07-09T14:56:49;11.70;;;3.38;;
63782;SDS011;49925;52.522;5.732;2022-07-09T14:59:17;19.05;;;3.47;;
63782;SDS011;49925;52.522;5.732;2022-07-09T15:01:47;17.67;;;5.10;;
63782;SDS011;49925;52.522;5.732;2022-07-09T15:04:14;15.20;;;3.63;;
63782;SDS011;49925;52.522;5.732;2022-07-09T15:06:42;15.10;;;3.28;;
63782;SDS011;49925;52.522;5.732;2022-07-09T15:09:09;18.25;;;3.20;;
63782;SDS011;49925;52.522;5.732;2022-07-09T15:11:37;15.60;;;2.72;;
63782;SDS011;49925;52.522;5.732;2022-07-09T15:14:08;14.30;;;3.20;;
63782;SDS011;49925;52.522;5.732;2022-07-09T15:16:35;14.88;;;3.22;;
63782;SDS011;49925;52.522;5.732;2022-07-09T15:19:06;15.90;;;3.03;;
63782;SDS011;49925;52.522;5.732;2022-07-09T15:21:33;13.75;;;3.10;;
63782;SDS011;49925;52.522;5.732;2022-07-09T15:24:00;13.98;;;3.10;;
63782;SDS011;49925;52.522;5.732;2022-07-09T15:26:29;15.88;;;3.55;;
63782;SDS011;49925;52.522;5.732;2022-07-09T15:28:56;15.98;;;3.40;;
63782;SDS011;49925;52.522;5.732;2022-07-09T15:31:23;18.45;;;3.22;;
63782;SDS011;49925;52.522;5.732;2022-07-09T15:33:54;15.38;;;3.10;;
63782;SDS011;49925;52.522;5.732;2022-07-09T15:36:21;25.42;;;3.40;;
63782;SDS011;49925;52.522;5.732;2022-07-09T15:38:49;10.95;;;3.00;;
63782;SDS011;49925;52.522;5.732;2022-07-09T15:41:16;15.35;;;3.55;;
63782;SDS011;49925;52.522;5.732;2022-07-09T15:43:43;21.40;;;3.78;;
63782;SDS011;49925;52.522;5.732;2022-07-09T15:46:10;15.77;;;3.35;;
63782;SDS011;49925;52.522;5.732;2022-07-09T15:48:37;17.95;;;3.75;;
63782;SDS011;49925;52.522;5.732;2022-07-09T15:51:06;13.68;;;3.70;;
63782;SDS011;49925;52.522;5.732;2022-07-09T15:53:34;13.82;;;3.10;;
63782;SDS011;49925;52.522;5.732;2022-07-09T15:56:01;15.77;;;3.30;;
63782;SDS011;49925;52.522;5.732;2022-07-09T17:34:48;22.33;;;3.22;;
63782;SDS011;49925;52.522;5.732;2022-07-09T17:37:15;14.30;;;3.45;;
63782;SDS011;49925;52.522;5.732;2022-07-09T17:39:42;19.30;;;3.30;;
63782;SDS011;49925;52.522;5.732;2022-07-09T17:42:09;19.52;;;3.92;;
63782;SDS011;49925;52.522;5.732;2022-07-09T17:44:36;16.45;;;3.47;;
63782;SDS011;49925;52.522;5.732;2022-07-09T17:47:04;17.13;;;3.58;;
63782;SDS011;49925;52.522;5.732;2022-07-09T17:49:31;12.35;;;2.88;;
63782;SDS011;49925;52.522;5.732;2022-07-09T17:51:58;13.63;;;2.50;;
63782;SDS011;49925;52.522;5.732;2022-07-09T17:54:25;19.13;;;2.75;;
63782;SDS011;49925;52.522;5.732;2022-07-09T17:56:55;16.67;;;2.65;;
63782;SDS011;49925;52.522;5.732;2022-07-09T17:59:25;17.70;;;2.33;;
63782;SDS011;49925;52.522;5.732;2022-07-09T18:04:23;8.02;;;2.40;;
63782;SDS011;49925;52.522;5.732;2022-07-09T18:06:50;11.95;;;2.53;;
63782;SDS011;49925;52.522;5.732;2022-07-09T18:09:17;12.70;;;2.38;;
63782;SDS011;49925;52.522;5.732;2022-07-09T18:11:44;9.60;;;2.25;;
63782;SDS011;49925;52.522;5.732;2022-07-09T18:14:11;15.20;;;2.83;;
63782;SDS011;49925;52.522;5.732;2022-07-09T18:16:39;11.57;;;2.53;;
63782;SDS011;49925;52.522;5.732;2022-07-09T18:19:08;15.40;;;2.40;;
63782;SDS011;49925;52.522;5.732;2022-07-09T18:21:36;17.42;;;2.42;;
63782;SDS011;49925;52.522;5.732;2022-07-09T18:24:05;16.17;;;2.95;;
63782;SDS011;49925;52.522;5.732;2022-07-09T18:26:32;14.77;;;2.50;;
63782;SDS011;49925;52.522;5.732;2022-07-09T18:29:06;8.98;;;2.00;;
63782;SDS011;49925;52.522;5.732;2022-07-09T18:31:34;12.50;;;3.35;;
63782;SDS011;49925;52.522;5.732;2022-07-09T18:34:01;8.38;;;1.98;;
63782;SDS011;49925;52.522;5.732;2022-07-09T18:36:28;8.68;;;2.15;;
63782;SDS011;49925;52.522;5.732;2022-07-09T18:38:55;7.80;;;2.60;;
63782;SDS011;49925;52.522;5.732;2022-07-09T18:41:31;10.85;;;2.40;;
63782;SDS011;49925;52.522;5.732;2022-07-09T18:43:59;11.20;;;2.83;;
63782;SDS011;49925;52.522;5.732;2022-07-09T18:46:26;15.90;;;2.20;;
63782;SDS011;49925;52.522;5.732;2022-07-09T18:48:53;9.38;;;2.10;;
63782;SDS011;49925;52.522;5.732;2022-07-09T18:51:20;15.55;;;2.35;;
63782;SDS011;49925;52.522;5.732;2022-07-09T18:53:48;10.05;;;2.20;;
63782;SDS011;49925;52.522;5.732;2022-07-09T18:56:15;15.45;;;2.53;;
63782;SDS011;49925;52.522;5.732;2022-07-09T18:58:42;19.77;;;2.70;;
63782;SDS011;49925;52.522;5.732;2022-07-09T19:01:10;13.10;;;2.55;;
63782;SDS011;49925;52.522;5.732;2022-07-09T19:03:37;17.25;;;2.85;;
63782;SDS011;49925;52.522;5.732;2022-07-09T19:06:04;12.30;;;2.30;;
63782;SDS011;49925;52.522;5.732;2022-07-09T19:08:31;18.48;;;2.78;;
63782;SDS011;49925;52.522;5.732;2022-07-09T19:10:58;7.80;;;2.20;;
63782;SDS011;49925;52.522;5.732;2022-07-09T19:13:25;12.85;;;2.17;;
63782;SDS011;49925;52.522;5.732;2022-07-09T19:15:53;12.88;;;2.33;;
63782;SDS011;49925;52.522;5.732;2022-07-09T19:18:20;18.85;;;3.47;;
63782;SDS011;49925;52.522;5.732;2022-07-09T19:20:47;9.73;;;2.95;;
63782;SDS011;49925;52.522;5.732;2022-07-09T19:23:15;15.25;;;2.88;;
63782;SDS011;49925;52.522;5.732;2022-07-09T19:25:42;17.00;;;3.03;;
63782;SDS011;49925;52.522;5.732;2022-07-09T19:28:09;18.90;;;3.08;;
63782;SDS011;49925;52.522;5.732;2022-07-09T19:30:36;17.02;;;2.72;;
63782;SDS011;49925;52.522;5.732;2022-07-09T19:33:22;18.13;;;2.92;;
63782;SDS011;49925;52.522;5.732;2022-07-09T19:36:08;14.30;;;3.00;;
63782;SDS011;49925;52.522;5.732;2022-07-09T19:38:35;14.93;;;2.63;;
63782;SDS011;49925;52.522;5.732;2022-07-09T19:41:03;17.08;;;3.28;;
63782;SDS011;49925;52.522;5.732;2022-07-09T19:43:30;15.18;;;2.97;;
63782;SDS011;49925;52.522;5.732;2022-07-09T19:45:57;14.52;;;3.17;;
63782;SDS011;49925;52.522;5.732;2022-07-09T19:48:24;17.23;;;2.60;;
63782;SDS011;49925;52.522;5.732;2022-07-09T19:50:51;23.90;;;2.85;;
63782;SDS011;49925;52.522;5.732;2022-07-09T19:53:19;12.55;;;2.83;;
63782;SDS011;49925;52.522;5.732;2022-07-09T19:55:46;10.48;;;2.60;;
63782;SDS011;49925;52.522;5.732;2022-07-09T19:58:13;14.85;;;2.40;;
63782;SDS011;49925;52.522;5.732;2022-07-09T20:00:40;17.95;;;2.80;;
63782;SDS011;49925;52.522;5.732;2022-07-09T20:03:07;22.42;;;3.70;;
63782;SDS011;49925;52.522;5.732;2022-07-09T20:05:35;16.15;;;2.75;;
63782;SDS011;49925;52.522;5.732;2022-07-09T20:08:02;12.63;;;3.10;;